Caliente, Nevada Weather observations

Data are for observation ending at time listed.
 Day   Time    Ave.   Ave.  Ave.  Vector   Max.   Stn.    Total    Solar   Ave.  
  of    of     Air    Rel.  Wind   Wind    Wind   Baro.  Precip.   Rad.    Soil  
Year   Day     Temp.  Hum.  Speed  Dir.    Gust   Pres.                    Temp. 
2014   (PST)    F      %     mph   deg.    mph     mb.     in.     W/m2     F   
------------------------------------------------------------------------------
 297   17:00   70.3    27    2.2   116      4.0   869.0    0.00       3    67.1
 297   17:10   69.0    28    1.4   122      3.3   869.1    0.00       2    67.0
 297   17:20   67.2    29    2.0   107      2.9   869.2    0.00       0    66.9
 297   17:30   66.1    31    0.9   262      2.8   869.3    0.00       0    66.7
 297   17:40   65.2    32    0.7   130      1.8   869.4    0.00       0    66.6
 297   17:50   64.6    32    1.2    88      3.6   869.5    0.00       0    66.4
 297   18:00   65.0    31    2.4    99      4.1   869.6    0.00       0    66.3
 297   18:10   64.7    32    0.8   224      3.5   869.7    0.00       1    66.0
 297   18:20   63.7    33    0.1   109      1.5   869.8    0.00       1    65.9
 297   18:30   63.2    33    1.0    91      4.2   869.8    0.00       1    65.7
 297   18:40   63.4    32    1.5    97      3.9   869.8    0.00       1    65.6
 297   18:50   61.7    36    0.3   102      2.6   869.9    0.00       1    65.4
 297   19:00   59.8    40    0.0   189      1.5   870.0    0.00       1    65.2
 297   19:10   58.6    42    0.2   218      1.5   870.0    0.00       0    65.1
 297   19:20   57.7    44    0.3   236      1.5   870.1    0.00       0    64.9
 297   19:30   56.6    46    0.2   169      1.5   870.1    0.00       0    64.8
 297   19:40   55.8    47    0.0     0      0.0   870.2    0.00       0    64.6
 297   19:50   55.4    47    0.1     4      0.9   870.3    0.00       0    64.4
 297   20:00   54.7    48    0.5   122      1.5   870.3    0.00       0    64.3
 297   20:10   54.2    48    0.0     0      0.0   870.3    0.00       0    64.1
 297   20:20   53.7    48    0.7   135      1.8   870.5    0.00       0    63.9
 297   20:30   53.8    47    0.9   205      1.8   870.6    0.00       0    63.8
 297   20:40   53.2    48    0.3   154      1.5   870.6    0.00       0    63.6
 297   20:50   52.6    49    0.7    98      2.1   870.6    0.00       0    63.4
 297   21:00   53.2    45    1.0   104      2.8   870.7    0.00       0    63.3
 297   21:10   53.7    44    0.7    86      1.8   870.7    0.00       0    63.2
 297   21:20   52.8    46    0.2   152      1.0   870.8    0.00       0    63.0
 297   21:30   51.4    49    0.5    38      2.2   870.9    0.00       0    62.9
 297   21:40   51.2    48    1.0    90      2.7   870.9    0.00       0    62.7
 297   21:50   50.9    49    1.1   126      2.9   871.0    0.00       0    62.6
 297   22:00   50.9    48    1.5    23      3.0   871.0    0.00       0    62.4
 297   22:10   50.0    50    0.7   129      1.7   871.0    0.00       0    62.3
 297   22:20   49.3    51    0.7    58      2.3   871.0    0.00       0    62.2
 297   22:30   48.7    53    0.8   126      2.1   871.0    0.00       0    62.0
 297   22:40   48.2    53    0.9    68      2.9   871.0    0.00       0    61.8
 297   22:50   48.0    53    0.9    99      2.9   871.0    0.00       0    61.7
 297   23:00   47.5    54    2.3    56      5.9   871.0    0.00       0    61.5
 297   23:10   48.0    53    0.9   186      3.6   871.0    0.00       0    61.4
 297   23:20   47.9    53    1.3   331      3.9   871.0    0.00       0    61.2
 297   23:30   47.0    55    1.1   130      2.3   871.0    0.00       0    61.1
 297   23:40   46.7    55    1.1    89      2.9   871.0    0.00       0    61.0
 297   23:50   46.4    55    1.0    69      3.5   871.0    0.00       0    60.8
 298    0:00   46.8    54    0.8    70      2.7   871.0    0.00       0    60.7
 298    0:10   46.0    56    0.9   107      2.5   871.0    0.00       0    60.5
 298    0:20   45.5    57    0.9   105      2.0   871.0    0.00       0    60.4
 298    0:30   45.4    56    1.0   136      2.7   871.0    0.00       0    60.3
 298    0:40   45.4    56    0.6    60      2.1   871.1    0.00       0    60.2
 298    0:50   44.4    58    1.1   126      2.8   871.1    0.00       0    60.0
 298    1:00   44.2    58    0.9    41      2.8   871.1    0.00       0    59.9
 298    1:10   43.9    59    1.1   111      2.6   871.1    0.00       0    59.8
 298    1:20   44.0    58    1.2   105      2.9   871.0    0.00       0    59.6
 298    1:30   44.0    58    1.1    63      2.6   870.9    0.00       0    59.5
 298    1:40   43.3    59    0.9    96      2.8   870.9    0.00       0    59.4
 298    1:50   43.0    61    0.4   102      1.1   870.8    0.00       0    59.2
 298    2:00   42.6    62    0.9   151      2.3   870.8    0.00       0    59.1
 298    2:10   42.3    61    0.8    51      2.0   870.8    0.00       0    59.0
 298    2:20   42.3    60    1.3    82      2.9   870.7    0.00       0    58.9
 298    2:30   41.9    61    1.3    70      3.0   870.6    0.00       0    58.7
 298    2:40   41.9    61    1.0    95      4.2   870.4    0.00       0    58.6
 298    2:50   41.0    63    1.6   122      2.8   870.4    0.00       0    58.5
 298    3:00   41.4    61    1.3    44      2.9   870.4    0.00       0    58.4
 298    3:10   41.4    61    1.2    46      2.6   870.4    0.00       0    58.3
 298    3:20   40.8    63    1.5   114      2.9   870.4    0.00       0    58.1
 298    3:30   40.1    64    1.2   105      2.6   870.3    0.00       0    58.0
 298    3:40   40.5    63    1.3   116      5.3   870.3    0.00       0    57.9
 298    3:50   39.9    64    1.9   103      3.1   870.3    0.00       0    57.8
 298    4:00   39.4    65    1.5   109      3.1   870.3    0.00       0    57.6
 298    4:10   39.6    64    1.2    75      3.2   870.3    0.00       0    57.5
 298    4:20   39.8    63    1.3    70      3.3   870.3    0.00       0    57.4
 298    4:30   39.4    65    1.2   134      2.3   870.3    0.00       0    57.3
 298    4:40   39.6    64    0.8   134      2.4   870.3    0.00       0    57.1
 298    4:50   39.6    64    1.6    51      2.9   870.4    0.00       0    57.0
 298    5:00   39.4    64    1.0    71      2.9   870.5    0.00       0    56.9
 298    5:10   39.2    64    1.3    67      6.4   870.4    0.00       0    56.8
 298    5:20   39.2    64    1.6    91      3.6   870.4    0.00       0    56.7
 298    5:30   38.8    66    1.3   142      2.6   870.4    0.00       0    56.6
 298    5:40   39.1    64    1.7     8      3.1   870.4    0.00       0    56.5
 298    5:50   38.9    64    1.2    53      2.5   870.4    0.00       0    56.4
 298    6:00   38.4    66    1.3   106      3.4   870.4    0.00       3    56.2
 298    6:10   38.6    64    1.4    34      3.4   870.4    0.00       6    56.1
 298    6:20   38.6    65    0.6   112      2.3   870.4    0.00       9    56.0
 298    6:30   38.1    67    1.1   108      2.7   870.4    0.00      11    55.9
 298    6:40   38.2    66    1.5   121      3.0   870.5    0.00      13    55.8
 298    6:50   38.7    64    2.4    21      4.3   870.5    0.00      16    55.7
 298    7:00   39.5    64    2.0   111      3.6   870.7    0.00      90    55.6
 298    7:10   42.6    58    1.4    49      4.2   870.6    0.00     114    55.5
 298    7:20   44.2    55    1.8    39      4.5   870.5    0.00     119    55.3
 298    7:30   46.4    50    0.8    28      4.7   870.5    0.00     102    55.3
 298    7:40   46.5    51    1.0   189      2.6   870.6    0.00     222    55.2
 298    7:50   46.7    51    1.5   121      2.7   870.6    0.00     247    55.2
 298    8:00   47.9    50    0.7   144      2.9   870.7    0.00     249    55.1
 298    8:10   49.2    48    0.8   146      1.8   870.8    0.00     294    55.2
 298    8:20   51.1    45    1.6    10      3.0   870.6    0.00     304    55.2
 298    8:30   52.8    43    1.6   348      4.1   870.6    0.00     343    55.2
 298    8:40   54.2    42    1.3   252      4.3   870.7    0.00     364    55.3
 298    8:50   55.0    41    1.2   115      3.4   870.6    0.00     385    55.4
 298    9:00   56.6    38    1.2    31      2.6   870.4    0.00     403    55.5
 298    9:10   57.9    37    1.2   290      3.0   870.2    0.00     420    55.7
 298    9:20   58.9    37    1.2   249      3.7   870.2    0.00     437    56.0
 298    9:30   61.2    35    1.1   320      3.2   869.9    0.00     451    56.4
 298    9:40   63.8    34    0.9   160      2.5   869.9    0.00     465    56.8
 298    9:50   66.3    33    1.3   135      3.0   869.7    0.00     478    57.1
 298   10:00   68.6    31    1.4   139      2.7   869.7    0.00     489    57.4
 298   10:10   70.2    29    2.9   255      9.1   869.6    0.00     501    57.6
 298   10:20   71.0    29    2.5   236      7.2   869.5    0.00     512    57.7
 298   10:30   71.3    29    4.9   172     15.1   869.4    0.00     522    57.8
 298   10:40   72.0    29    3.8   258     16.0   869.3    0.00     531    58.0
 298   10:50   72.1    29    4.0   248      8.6   869.1    0.00     537    58.2
 298   11:00   72.6    30    3.5   273     13.0   868.9    0.00     543    58.4
 298   11:10   72.4    30    5.3   239     16.7   868.7    0.00     549    58.6
 298   11:20   72.4    31    5.2   192     23.5   868.5    0.00     554    58.9
 298   11:30   72.5    30    6.9   240     24.7   868.3    0.00     565    59.2
 298   11:40   72.5    30    8.0   245     25.8   868.0    0.00     571    59.4
 298   11:50   73.0    29    8.0   241     26.1   867.8    0.00     510    59.7
 298   12:00   72.6    29   11.0   250     29.6   867.7    0.00     557    59.9
 298   12:10   73.1    29    7.3   239     24.3   867.7    0.00     530    60.2
 298   12:20   73.4    28    6.2   244     16.6   867.6    0.00     515    60.5
 298   12:30   73.2    28    8.1   246     21.9   867.4    0.00     474    60.8
 298   12:40   73.0    28    7.7   243     18.9   867.3    0.00     498    61.1
 298   12:50   73.0    29    8.4   240     24.5   867.1    0.00     531    61.3
 298   13:00   73.0    29   11.5   247     23.5   866.9    0.00     503    61.5
 298   13:10   72.9    29    7.9   239     20.0   867.0    0.00     483    61.8
 298   13:20   72.8    29    9.0   243     20.8   867.0    0.00     466    62.0
 298   13:30   72.6    29    6.8   214     19.1   866.9    0.00     336    62.2
 298   13:40   72.6    29    9.3   243     21.5   866.8    0.00      36    62.4
 298   13:50   72.6    29    6.9   239     17.2   866.8    0.00      32    62.5
 298   14:00   72.4    29    6.7   233     17.0   866.8    0.00      33    62.7
 298   14:10   72.7    29    6.7   210     22.5   866.9    0.00      42    62.8
 298   14:20   72.5    29    6.5   199     26.4   866.8    0.00      65    62.9
 298   14:30   72.2    29    8.4   236     24.0   866.7    0.00     278    63.2
 298   14:40   71.7    29    8.1   240     15.9   866.8    0.00      63    63.4
 298   14:50   71.2    30    5.2   244     13.7   866.8    0.00     144    63.8
 298   15:00   71.6    30    4.5   238     11.9   866.7    0.00     113    64.0
 298   15:10   71.4    30    3.7   241     17.0   866.6    0.00      82    64.2
 298   15:20   71.4    29    4.4   239     12.9   866.5    0.00     132    64.4
 298   15:30   72.8    28    2.7   246     10.9   866.5    0.00     209    64.5
 298   15:40   72.8    28    4.3   213     14.7   866.4    0.00     167    64.7
 298   15:50   72.4    28    5.5   248     17.2   866.4    0.00     137    64.9
 298   16:00   72.2    29    4.7   247     15.5   866.4    0.00     113    65.2
 298   16:10   72.0    28    5.2   191     19.4   866.2    0.00      88    65.4
 298   16:20   71.8    29    5.1   232     12.7   866.0    0.00      60    65.6
 298   16:30   71.7    29    3.6   236     10.8   865.9    0.00      36    65.8
 298   16:40   71.0    30    4.9   236     13.1   866.0    0.00      12    65.9
 298   16:50   70.4    31    3.9   228     10.7   865.9    0.00       6    65.9

Return to Caliente, Nevada graphs page.


Western Regional Climate Center,wrcc@dri.edu